To NAV CANADA Home Page Login to a new session Search on AWWS site Feedback and Comments Disclaimer Vers la page française équivalente Tips FAQ What's new on the site To the Forecasts and Observations / NOTAM section To "File a Flight Plan" website Publications and other links Update of the User's profile FIC Telephone Numbers My Weather Data Folder Route Weather Data Regional Weather Data Local Weather Data To the Forecasts and Observations / NOTAM section
Request Generated 04/24/2014 at 01:32:05 UTC . Weather information available at that time is displayed.

METAR/TAF

THOMPSON/MB    

METAR CYTH 240100Z 06014G20KT 15SM FEW210 01/M04 A3015 RMK CI1 SLP227=
METAR CYTH 240000Z 06012G21KT 15SM FEW230 03/M03 A3015 RMK CI0 SLP227=
METAR CYTH 232300Z 07014G19KT 15SM FEW250 03/M04 A3015 RMK CI0 SLP224=

TAF CYTH 240042Z 2401/2413 06012G22KT P6SM SKC
FM240300 07010G20KT P6SM SCT020 TEMPO 2403/2413 BKN020
RMK NXT FCST BY 240700Z=
Your time UTC time
Weather data provided by Environment Canada and NAV CANADA